Time;durP1;ratioP1;P1;durP2;ratioP2;P2;SDS_P1;SDS_P2;PMS_P1;PMS_P2;Temp;Humidity;BMP_temperature;BMP_pressure;BME280_temperature;BME280_humidity;BME280_pressure;Samples;Min_cycle;Max_cycle;Signal;HPM_P1;HPM_P2
2022/02/08 00:04:01;;;;;;;;;;;;;;;21.04;23.92;96912.59;10467563;28;2061;-44
2022/02/08 00:09:03;;;;;;;;;;;;;;;21.04;24.02;96917.88;10469262;28;1805;-44
2022/02/08 00:14:04;;;;;;;;;;;;;;;21.03;23.91;96918.13;10465782;28;1864;-42
2022/02/08 00:19:05;;;;;;;;;;;;;;;21.04;23.91;96925.00;10461104;28;1932;-42
2022/02/08 00:24:06;;;;;;;;;;;;;;;21.04;23.78;96925.00;10475230;28;1837;-43
2022/02/08 00:29:06;;;;;;;;;;;;;;;21.04;24.03;96931.03;10472224;28;1906;-43
2022/02/08 00:34:06;;;;;;;;;;;;;;;21.02;23.67;96927.88;10472221;28;1826;-43
2022/02/08 00:39:08;;;;;;;;;;;;;;;21.02;23.60;96934.97;10473741;28;2050;-43
2022/02/08 00:44:17;;;;;;;;;;;;;;;21.01;23.71;96931.53;10471575;28;1875;-42
2022/02/08 00:49:18;;;;;;;;;;;;;;;21.01;23.75;96928.88;10465546;28;1825;-44
2022/02/08 00:54:18;;;;;;;;;;;;;;;21.02;23.61;96938.41;10468015;28;2014;-42
2022/02/08 00:59:19;;;;;;;;;;;;;;;21.01;23.90;96933.34;10466241;28;2069;-43
2022/02/08 01:04:19;;;;;;;;;;;;;;;21.01;23.63;96947.34;10471879;28;1888;-44
2022/02/08 01:09:29;;;;;;;;;;;;;;;21.02;24.23;96937.59;10463386;28;1999;-47
2022/02/08 01:14:35;;;;;;;;;;;;;;;21.03;23.70;96945.28;10470252;28;1844;-44
2022/02/08 01:19:39;;;;;;;;;;;;;;;21.03;23.59;96944.47;10471126;28;1987;-45
2022/02/08 01:24:39;;;;;;;;;;;;;;;21.01;23.60;96947.34;10462621;28;1971;-43
2022/02/08 01:35:23;;;;;;;;;;;;;;;21.03;23.73;96947.13;10469298;28;2165;-42
2022/02/08 01:50:41;;;;;;;;;;;;;;;21.00;23.42;96943.09;10467744;28;1832;-45
2022/02/08 01:55:41;;;;;;;;;;;;;;;21.03;23.66;96949.75;10467426;28;1989;-44
2022/02/08 02:00:42;;;;;;;;;;;;;;;21.01;23.48;96965.00;10469335;28;1969;-43
2022/02/08 02:05:43;;;;;;;;;;;;;;;21.02;23.38;96943.69;10476169;28;1804;-42
2022/02/08 02:10:44;;;;;;;;;;;;;;;20.98;23.17;96953.09;10478450;28;1911;-42
2022/02/08 02:15:45;;;;;;;;;;;;;;;21.00;23.67;96945.72;10479126;28;1853;-44
2022/02/08 02:20:49;;;;;;;;;;;;;;;20.97;23.24;96940.97;10479318;28;1914;-46
2022/02/08 02:25:51;;;;;;;;;;;;;;;20.99;23.61;96941.53;10478144;28;1932;-46
2022/02/08 02:30:54;;;;;;;;;;;;;;;21.00;23.57;96934.38;10478819;28;2022;-45
2022/02/08 02:35:56;;;;;;;;;;;;;;;20.97;23.28;96940.97;10478861;28;2025;-45
2022/02/08 02:40:56;;;;;;;;;;;;;;;20.96;23.39;96946.47;10475581;28;1898;-46
2022/02/08 02:46:00;;;;;;;;;;;;;;;20.98;23.54;96962.84;10476935;28;1844;-45
2022/02/08 02:51:00;;;;;;;;;;;;;;;20.98;23.58;96958.38;10474799;28;2038;-43
2022/02/08 02:56:00;;;;;;;;;;;;;;;20.99;23.84;96946.78;10477892;28;1801;-46
2022/02/08 03:21:42;;;;;;;;;;;;;;;20.96;23.42;96954.38;10474108;28;1961;-44
2022/02/08 03:26:43;;;;;;;;;;;;;;;20.96;23.31;96965.72;10477126;28;1813;-43
2022/02/08 03:31:44;;;;;;;;;;;;;;;20.99;23.60;96973.16;10475727;28;1833;-43
2022/02/08 03:36:45;;;;;;;;;;;;;;;20.96;23.11;96975.47;10475554;28;1982;-45
2022/02/08 03:41:51;;;;;;;;;;;;;;;20.96;23.40;96984.19;10469297;28;1898;-44
2022/02/08 03:46:52;;;;;;;;;;;;;;;20.96;23.15;96976.28;10472875;28;1612;-44
2022/02/08 03:51:57;;;;;;;;;;;;;;;20.97;22.98;96972.59;10476257;28;1789;-42
2022/02/08 03:56:59;;;;;;;;;;;;;;;20.96;23.33;96975.47;10476157;28;1836;-46
2022/02/08 04:07:24;;;;;;;;;;;;;;;20.96;23.08;96976.28;10499628;28;2003;-44
2022/02/08 04:12:33;;;;;;;;;;;;;;;20.95;23.31;96979.16;10468981;28;1853;-44
2022/02/08 04:53:37;;;;;;;;;;;;;;;20.95;23.20;96984.44;10468686;28;1876;-47
2022/02/08 04:58:46;;;;;;;;;;;;;;;20.92;23.31;96980.44;10469548;28;1947;-44
2022/02/08 05:51:16;;;;;;;;;;;;;;;20.90;23.37;96961.44;10420368;28;1848;-54
2022/02/08 05:56:16;;;;;;;;;;;;;;;20.91;23.29;96957.78;10437444;28;1878;-55
2022/02/08 06:01:17;;;;;;;;;;;;;;;20.91;23.16;96967.50;10419262;28;1985;-51
2022/02/08 06:06:19;;;;;;;;;;;;;;;20.92;23.52;96967.25;10420891;28;1867;-51
2022/02/08 06:11:20;;;;;;;;;;;;;;;20.91;23.19;96975.41;10436649;28;1808;-51
2022/02/08 06:16:22;;;;;;;;;;;;;;;20.89;23.32;96977.50;10440633;28;1890;-55
2022/02/08 06:21:22;;;;;;;;;;;;;;;20.90;23.39;96973.81;10438565;28;1969;-57
2022/02/08 06:26:24;;;;;;;;;;;;;;;20.88;23.40;96973.25;10438828;28;2016;-54
2022/02/08 06:31:24;;;;;;;;;;;;;;;20.86;23.46;96978.78;10419708;28;1846;-55
2022/02/08 06:36:25;;;;;;;;;;;;;;;20.88;23.24;96974.06;10439255;28;1886;-57
2022/02/08 06:41:25;;;;;;;;;;;;;;;20.89;23.34;96986.22;10432874;28;1913;-54
2022/02/08 06:46:25;;;;;;;;;;;;;;;20.91;23.86;96994.69;10422393;28;1810;-56
2022/02/08 06:51:26;;;;;;;;;;;;;;;20.86;23.21;96986.69;10424976;28;1842;-58
2022/02/08 06:56:26;;;;;;;;;;;;;;;20.86;23.29;96989.34;10443419;28;1851;-52
2022/02/08 07:01:31;;;;;;;;;;;;;;;20.87;23.62;96998.03;10442526;28;1918;-52
2022/02/08 07:06:32;;;;;;;;;;;;;;;20.88;23.22;96999.63;10447103;28;1878;-55
2022/02/08 07:11:32;;;;;;;;;;;;;;;20.87;23.62;96998.03;10445333;28;1942;-51
2022/02/08 07:16:33;;;;;;;;;;;;;;;20.86;23.68;97005.16;10447676;28;1832;-54
2022/02/08 07:21:36;;;;;;;;;;;;;;;20.85;23.56;97006.19;10445735;28;1906;-61
2022/02/08 07:26:36;;;;;;;;;;;;;;;20.86;23.24;97017.53;10426720;28;1764;-57
2022/02/08 07:31:41;;;;;;;;;;;;;;;20.86;23.63;97017.53;10428499;28;1791;-56
2022/02/08 07:37:10;;;;;;;;;;;;;;;20.84;23.21;97009.88;10443611;28;1808;-57
2022/02/08 07:42:05;;;;;;;;;;;;;;;20.85;23.40;97014.09;10437882;28;1980;-55
2022/02/08 07:47:06;;;;;;;;;;;;;;;20.85;23.34;97010.66;10416542;28;1938;-54
2022/02/08 07:52:06;;;;;;;;;;;;;;;20.84;23.33;97015.13;10419823;28;1897;-55
2022/02/08 07:57:07;;;;;;;;;;;;;;;20.85;23.28;97021.22;10444340;28;1964;-54
2022/02/08 08:02:07;;;;;;;;;;;;;;;20.85;23.39;97016.75;10435209;28;1981;-55
2022/02/08 08:07:07;;;;;;;;;;;;;;;20.84;23.41;97019.59;10414734;28;1903;-56
2022/02/08 08:12:11;;;;;;;;;;;;;;;20.83;23.32;97012.75;10434591;28;1937;-54
2022/02/08 08:22:29;;;;;;;;;;;;;;;20.81;22.98;96999.81;10435616;28;1906;-57
2022/02/08 08:27:30;;;;;;;;;;;;;;;20.80;23.22;97008.75;10438542;28;1918;-56
2022/02/08 08:32:30;;;;;;;;;;;;;;;20.82;23.63;96996.13;10429805;28;2107;-55
2022/02/08 08:37:36;;;;;;;;;;;;;;;20.81;23.24;96999.81;10433031;28;1899;-57
2022/02/08 08:42:48;;;;;;;;;;;;;;;20.84;23.60;97024.88;10406825;28;1982;-57
2022/02/08 08:53:08;;;;;;;;;;;;;;;20.86;23.37;97017.53;10419021;28;1834;-57
2022/02/08 08:58:08;;;;;;;;;;;;;;;20.82;23.54;97019.06;10418131;28;2040;-58
2022/02/08 09:03:08;;;;;;;;;;;;;;;20.83;23.43;97013.56;10432751;28;1886;-55
2022/02/08 09:08:09;;;;;;;;;;;;;;;20.85;23.80;97000.13;10405139;28;1899;-56
2022/02/08 09:13:26;;;;;;;;;;;;;;;20.86;23.30;97004.34;10415939;28;2112;-57
2022/02/08 09:24:16;;;;;;;;;;;;;;;20.82;23.12;96990.06;10405528;28;1903;-56
2022/02/08 09:29:36;;;;;;;;;;;;;;;20.84;23.14;96998.53;10408533;28;2087;-57
2022/02/08 09:34:41;;;;;;;;;;;;;;;20.87;23.11;96998.03;10414557;28;2152;-58
2022/02/08 09:39:42;;;;;;;;;;;;;;;20.91;23.11;96994.69;10429770;28;2092;-57
2022/02/08 09:44:42;;;;;;;;;;;;;;;20.93;23.04;96984.69;10436331;28;1772;-56
2022/02/08 09:49:52;;;;;;;;;;;;;;;20.97;23.09;96996.31;10422589;28;1796;-57
2022/02/08 09:54:52;;;;;;;;;;;;;;;20.94;22.92;96988.91;10427312;28;1844;-61
2022/02/08 09:59:53;;;;;;;;;;;;;;;20.94;23.25;96986.25;10424642;28;1992;-59
2022/02/08 10:04:57;;;;;;;;;;;;;;;20.93;23.71;97008.41;10414801;28;2350;-54
2022/02/08 10:09:59;;;;;;;;;;;;;;;21.03;23.80;97002.47;10430778;28;1871;-56
2022/02/08 10:25:59;;;;;;;;;;;;;;;21.06;23.42;97002.78;10430962;28;2168;-59
2022/02/08 10:41:25;;;;;;;;;;;;;;;21.01;23.19;96986.09;10432603;28;2132;-56
2022/02/08 10:46:27;;;;;;;;;;;;;;;20.99;23.48;96973.16;10418937;28;2164;-56
2022/02/08 10:51:30;;;;;;;;;;;;;;;20.98;23.20;96970.75;10435783;28;2290;-54
2022/02/08 10:56:34;;;;;;;;;;;;;;;21.00;23.29;96971.28;10420794;28;2125;-57
2022/02/08 11:01:42;;;;;;;;;;;;;;;21.00;23.38;96960.75;10424694;28;2081;-54
2022/02/08 11:06:46;;;;;;;;;;;;;;;21.01;23.33;96946.53;10442079;28;1812;-54
2022/02/08 11:27:40;;;;;;;;;;;;;;;21.29;24.00;96932.38;10407980;28;1900;-58
2022/02/08 11:33:05;;;;;;;;;;;;;;;21.43;24.46;96928.28;10432140;28;1847;-57
2022/02/08 11:58:45;;;;;;;;;;;;;;;21.59;24.35;96906.25;10535034;28;1942;-45
2022/02/08 12:09:11;;;;;;;;;;;;;;;21.67;24.54;96911.06;10527171;28;1840;-44
2022/02/08 12:35:31;;;;;;;;;;;;;;;21.73;24.46;96902.13;10530476;28;1832;-48
2022/02/08 12:56:37;;;;;;;;;;;;;;;21.80;24.87;96892.94;10516433;28;1920;-46
2022/02/08 13:02:11;;;;;;;;;;;;;;;21.80;24.76;96886.88;10530924;28;1969;-47
2022/02/08 13:18:37;;;;;;;;;;;;;;;21.76;24.45;96864.69;10517693;28;1884;-48
2022/02/08 14:05:54;;;;;;;;;;;;;;;21.95;23.41;96846.63;10533605;28;1878;-46
2022/02/08 15:08:25;;;;;;;;;;;;;;;21.68;23.89;96836.09;10519665;28;1870;-43
2022/02/08 15:13:27;;;;;;;;;;;;;;;21.69;23.71;96832.44;10534287;28;1958;-44
2022/02/08 15:18:29;;;;;;;;;;;;;;;21.66;24.08;96825.81;10536778;28;1973;-44
2022/02/08 15:23:29;;;;;;;;;;;;;;;21.65;24.17;96839.25;10539169;27;1798;-47
2022/02/08 15:28:30;;;;;;;;;;;;;;;21.66;23.89;96839.00;10548579;27;1751;-45
2022/02/08 15:33:31;;;;;;;;;;;;;;;21.64;24.38;96829.75;10531622;28;1859;-44
2022/02/08 15:38:33;;;;;;;;;;;;;;;21.63;23.96;96833.44;10531602;28;2168;-44
2022/02/08 15:43:35;;;;;;;;;;;;;;;21.60;23.48;96845.28;10534980;28;1919;-48
2022/02/08 15:48:37;;;;;;;;;;;;;;;21.60;24.00;96840.00;10522004;28;1952;-49
2022/02/08 16:15:27;;;;;;;;;;;;;;;21.59;24.05;96864.03;10392991;28;1831;-46
2022/02/08 16:57:16;;;;;;;;;;;;;;;21.55;24.22;96874.28;10524765;28;1836;-44
2022/02/08 17:02:20;;;;;;;;;;;;;;;21.54;24.01;96877.97;10533250;28;1975;-46
2022/02/08 17:07:22;;;;;;;;;;;;;;;21.55;24.02;96871.66;10534397;28;1788;-45
2022/02/08 17:49:37;;;;;;;;;;;;;;;21.51;23.53;96904.06;10521668;28;1931;-44
2022/02/08 17:54:37;;;;;;;;;;;;;;;21.50;24.07;96897.19;10530959;28;1792;-47
2022/02/08 17:59:39;;;;;;;;;;;;;;;21.51;23.56;96893.50;10534191;28;1973;-48
2022/02/08 18:04:39;;;;;;;;;;;;;;;21.51;24.08;96904.06;10532771;28;1906;-47
2022/02/08 18:09:40;;;;;;;;;;;;;;;21.61;24.87;96904.94;10530299;28;1708;-44
2022/02/08 18:14:44;;;;;;;;;;;;;;;21.68;24.43;96902.88;10529307;28;1916;-46
2022/02/08 18:19:51;;;;;;;;;;;;;;;21.58;23.74;96907.28;10531585;28;1917;-44
2022/02/08 18:57:29;;;;;;;;;;;;;;;21.59;24.36;96922.88;10508615;28;1915;-46
2022/02/08 19:07:50;;;;;;;;;;;;;;;21.59;23.73;96924.72;10536564;28;1851;-46
2022/02/08 19:18:34;;;;;;;;;;;;;;;21.58;24.05;96925.75;10512174;28;1984;-44
2022/02/08 19:23:37;;;;;;;;;;;;;;;21.58;23.49;96937.09;10541228;27;1769;-44
2022/02/08 19:28:37;;;;;;;;;;;;;;;21.56;23.67;96952.38;10537725;28;1780;-47
2022/02/08 19:33:38;;;;;;;;;;;;;;;21.59;24.13;96949.25;10530841;28;1781;-48
2022/02/08 19:38:41;;;;;;;;;;;;;;;21.65;23.95;96948.25;10532112;28;1913;-47
2022/02/08 19:43:42;;;;;;;;;;;;;;;21.59;23.63;96948.47;10532192;28;1499;-45
2022/02/08 19:48:42;;;;;;;;;;;;;;;21.56;23.36;96949.75;10541581;28;1491;-45
2022/02/08 19:53:44;;;;;;;;;;;;;;;21.55;23.40;96961.38;10536285;28;1395;-44
2022/02/08 19:58:48;;;;;;;;;;;;;;;21.55;23.46;96964.00;10530480;28;1901;-46
2022/02/08 20:04:23;;;;;;;;;;;;;;;21.53;23.71;96965.28;10537473;28;1634;-48
2022/02/08 20:09:16;;;;;;;;;;;;;;;21.54;23.69;96970.31;10540672;28;1475;-46
2022/02/08 20:14:17;;;;;;;;;;;;;;;21.56;23.51;96970.06;10529716;28;1903;-45
2022/02/08 20:19:20;;;;;;;;;;;;;;;21.55;23.88;96968.47;10537649;28;1909;-46
2022/02/08 20:24:20;;;;;;;;;;;;;;;21.55;23.39;96968.47;10528548;28;1731;-44
2022/02/08 20:29:23;;;;;;;;;;;;;;;21.55;23.53;96968.47;10534172;28;1666;-49
2022/02/08 20:34:25;;;;;;;;;;;;;;;21.54;23.72;96980.88;10525580;27;1529;-48
2022/02/08 20:39:26;;;;;;;;;;;;;;;21.52;23.58;96974.25;10534300;28;2205;-44
2022/02/08 20:44:27;;;;;;;;;;;;;;;21.54;24.35;96982.69;10537303;28;1461;-47
2022/02/08 20:49:27;;;;;;;;;;;;;;;21.53;24.08;96987.19;10535441;28;1775;-49
2022/02/08 20:54:29;;;;;;;;;;;;;;;21.54;23.38;96987.97;10536472;28;1366;-45
2022/02/08 20:59:30;;;;;;;;;;;;;;;21.53;23.39;97000.41;10525821;28;1902;-45
2022/02/08 21:04:42;;;;;;;;;;;;;;;21.52;23.31;96996.16;10539742;28;1463;-44
2022/02/08 21:09:43;;;;;;;;;;;;;;;21.54;23.61;96998.53;10528328;28;1566;-44
2022/02/08 21:14:44;;;;;;;;;;;;;;;21.53;23.14;96996.94;10539864;28;1453;-44
2022/02/08 21:19:44;;;;;;;;;;;;;;;21.52;23.37;97000.63;10533406;28;1898;-43
2022/02/08 21:24:45;;;;;;;;;;;;;;;21.52;23.76;97003.25;10538611;28;1478;-45
2022/02/08 21:29:59;;;;;;;;;;;;;;;21.53;23.36;96996.94;10536912;28;1397;-45
2022/02/08 21:55:59;;;;;;;;;;;;;;;21.54;23.73;96995.88;10533747;28;1844;-43
2022/02/08 22:01:00;;;;;;;;;;;;;;;21.51;23.34;96994.56;10538387;28;1906;-46
2022/02/08 22:06:03;;;;;;;;;;;;;;;21.50;23.40;96992.16;10530142;28;1853;-44
2022/02/08 22:32:04;;;;;;;;;;;;;;;21.45;23.14;97002.69;10541132;28;1851;-44
2022/02/08 22:37:14;;;;;;;;;;;;;;;21.44;22.94;96999.25;10533268;28;1813;-45
2022/02/08 22:42:24;;;;;;;;;;;;;;;21.44;23.05;97014.25;10537836;28;1975;-47
2022/02/08 22:47:25;;;;;;;;;;;;;;;21.45;23.47;97006.09;10538063;28;1825;-44
2022/02/08 22:52:25;;;;;;;;;;;;;;;21.44;23.48;96993.16;10542391;28;1867;-45
2022/02/08 22:57:25;;;;;;;;;;;;;;;21.45;23.18;96987.63;10537996;28;1781;-45
2022/02/08 23:02:26;;;;;;;;;;;;;;;21.44;23.01;96977.34;10535664;28;1972;-44
2022/02/08 23:07:26;;;;;;;;;;;;;;;21.44;23.10;96972.06;10538388;28;1892;-45
2022/02/08 23:12:53;;;;;;;;;;;;;;;21.46;22.96;96972.59;10541277;28;1748;-46
2022/02/08 23:39:09;;;;;;;;;;;;;;;21.44;23.29;96943.84;10532356;28;1980;-46
2022/02/08 23:44:09;;;;;;;;;;;;;;;21.43;23.38;96952.00;10533337;28;1801;-44
2022/02/08 23:49:27;;;;;;;;;;;;;;;21.42;23.54;96942.50;10528457;28;1808;-46
2022/02/08 23:54:32;;;;;;;;;;;;;;;21.42;23.40;96959.13;10531887;28;1804;-45
2022/02/08 23:59:49;;;;;;;;;;;;;;;21.41;23.31;96951.47;10549588;27;1910;-45
